createdAt,value
2018-06-09T00:00:04.575Z,61.33
2018-06-09T00:02:33.485Z,61.24
2018-06-09T00:05:01.808Z,61.07
2018-06-09T00:07:29.580Z,60.86
2018-06-09T00:09:58.482Z,60.90
2018-06-09T00:12:26.802Z,60.99
2018-06-09T00:14:54.549Z,61.38
2018-06-09T00:17:23.451Z,61.50
2018-06-09T00:19:51.197Z,61.59
2018-06-09T00:22:19.517Z,61.67
2018-06-09T00:24:49.554Z,61.77
2018-06-09T00:27:19.682Z,62.04
2018-06-09T00:29:49.631Z,62.27
2018-06-09T00:32:17.671Z,62.37
2018-06-09T00:34:47.555Z,62.32
2018-06-09T00:37:19.515Z,62.36
2018-06-09T00:39:47.261Z,62.33
2018-06-09T00:42:16.185Z,62.30
2018-06-09T00:44:44.501Z,62.12
2018-06-09T00:47:12.834Z,62.01
2018-06-09T00:49:41.161Z,61.98
2018-06-09T00:52:09.481Z,61.96
2018-06-09T00:54:37.800Z,62.24
2018-06-09T00:57:06.121Z,62.36
2018-06-09T00:59:34.441Z,62.60
2018-06-09T01:02:02.754Z,62.88
2018-06-09T01:04:31.079Z,62.85
2018-06-09T01:06:59.402Z,62.83
2018-06-09T01:09:27.720Z,63.05
2018-06-09T01:11:56.059Z,63.28
2018-06-09T01:14:24.387Z,63.26
2018-06-09T01:16:52.700Z,63.46
2018-06-09T01:19:21.029Z,63.47
2018-06-09T01:21:49.346Z,63.54
2018-06-09T01:24:17.672Z,63.62
2018-06-09T01:26:45.422Z,63.73
2018-06-09T01:29:14.332Z,63.49
2018-06-09T01:31:42.073Z,63.61
2018-06-09T01:34:10.985Z,63.92
2018-06-09T01:36:39.294Z,64.20
2018-06-09T01:39:07.617Z,64.25
2018-06-09T01:41:35.943Z,64.29
2018-06-09T01:44:04.259Z,64.17
2018-06-09T01:46:31.998Z,63.64
2018-06-09T01:49:00.902Z,63.69
2018-06-09T01:51:29.649Z,64.00
2018-06-09T01:53:57.974Z,64.21
2018-06-09T01:56:26.292Z,64.48
2018-06-09T01:58:54.640Z,64.60
2018-06-09T02:01:22.968Z,64.58
2018-06-09T02:03:50.696Z,64.34
2018-06-09T02:06:19.016Z,64.22
2018-06-09T02:08:47.330Z,64.13
2018-06-09T02:11:16.562Z,64.02
2018-06-09T02:13:44.870Z,63.96
2018-06-09T02:16:13.190Z,64.10
2018-06-09T02:18:41.515Z,64.11
2018-06-09T02:21:09.830Z,64.28
2018-06-09T02:23:37.577Z,64.45
2018-06-09T02:26:06.483Z,64.67
2018-06-09T02:28:34.231Z,64.82
2018-06-09T02:31:03.129Z,64.97
2018-06-09T02:33:31.459Z,64.89
2018-06-09T02:35:59.202Z,64.80
2018-06-09T02:38:28.094Z,65.00
2018-06-09T02:40:56.415Z,65.36
2018-06-09T02:43:24.157Z,65.84
2018-06-09T02:45:52.528Z,66.01
2018-06-09T02:48:21.428Z,65.97
2018-06-09T02:50:49.760Z,66.15
2018-06-09T02:53:18.145Z,66.10
2018-06-09T02:55:46.473Z,66.06
2018-06-09T02:58:14.808Z,65.86
2018-06-09T03:00:43.130Z,65.56
2018-06-09T03:03:10.882Z,65.18
2018-06-09T03:05:39.783Z,64.71
2018-06-09T03:08:08.102Z,64.46
2018-06-09T03:10:36.436Z,64.42
2018-06-09T03:13:04.781Z,64.54
2018-06-09T03:15:33.130Z,64.55
2018-06-09T03:18:00.858Z,64.83
2018-06-09T03:20:29.765Z,64.92
2018-06-09T03:22:58.091Z,64.91
2018-06-09T03:25:26.415Z,64.91
2018-06-09T03:27:54.750Z,64.84
2018-06-09T03:30:22.490Z,64.91
2018-06-09T03:32:51.395Z,64.79
2018-06-09T03:35:19.128Z,64.67
2018-06-09T03:37:47.442Z,64.46
2018-06-09T03:40:16.349Z,64.30
2018-06-09T03:42:44.684Z,64.17
2018-06-09T03:45:13.000Z,63.88
2018-06-09T03:47:41.329Z,63.44
2018-06-09T03:50:09.641Z,62.99
2018-06-09T03:52:37.967Z,62.33
2018-06-09T03:55:06.343Z,61.66
2018-06-09T03:57:34.660Z,60.93
2018-06-09T04:00:02.978Z,60.36
2018-06-09T04:02:31.306Z,60.06
2018-06-09T04:04:59.867Z,59.84
2018-06-09T04:07:27.977Z,59.57
2018-06-09T04:09:56.306Z,59.48
2018-06-09T04:12:24.637Z,59.58
2018-06-09T04:14:52.958Z,59.71
2018-06-09T04:17:20.700Z,59.85
2018-06-09T04:19:49.027Z,60.03
2018-06-09T04:22:17.355Z,60.47
2018-06-09T04:24:46.291Z,60.35
2018-06-09T04:27:14.618Z,60.01
2018-06-09T04:29:42.949Z,59.38
2018-06-09T04:32:11.286Z,58.57
2018-06-09T04:34:39.827Z,58.20
2018-06-09T04:37:07.945Z,57.62
2018-06-09T04:39:35.695Z,57.37
2018-06-09T04:42:04.602Z,57.45
2018-06-09T04:44:32.926Z,57.57
2018-06-09T04:47:00.674Z,57.87
2018-06-09T04:49:28.985Z,57.88
2018-06-09T04:51:57.886Z,58.16
2018-06-09T04:54:26.203Z,58.59
2018-06-09T04:56:53.997Z,58.79
2018-06-09T04:59:22.929Z,58.83
2018-06-09T05:01:51.249Z,59.02
2018-06-09T05:04:19.566Z,59.50
2018-06-09T05:06:47.917Z,59.83
2018-06-09T05:09:16.228Z,59.91
2018-06-09T05:11:44.552Z,60.13
2018-06-09T05:14:12.289Z,60.25
2018-06-09T05:16:41.201Z,60.20
2018-06-09T05:19:09.522Z,60.29
2018-06-09T05:21:38.015Z,60.69
2018-06-09T05:24:06.911Z,60.43
2018-06-09T05:26:35.240Z,60.38
2018-06-09T05:29:03.565Z,60.55
2018-06-09T05:31:31.883Z,60.85
2018-06-09T05:34:00.221Z,60.99
2018-06-09T05:36:27.970Z,60.82
2018-06-09T05:38:56.292Z,60.80
2018-06-09T05:41:25.236Z,60.81
2018-06-09T05:43:53.559Z,60.84
2018-06-09T05:46:21.881Z,60.88
2018-06-09T05:48:49.644Z,60.72
2018-06-09T05:51:18.547Z,60.64
2018-06-09T05:53:46.871Z,60.46
2018-06-09T05:56:15.197Z,60.47
2018-06-09T05:58:43.613Z,60.42
2018-06-09T06:01:11.942Z,59.55
2018-06-09T06:03:39.879Z,60.03
2018-06-09T06:06:08.610Z,60.21
2018-06-09T06:08:36.405Z,59.85
2018-06-09T06:11:04.689Z,59.25
2018-06-09T06:13:33.623Z,58.79
2018-06-09T06:16:01.935Z,58.83
2018-06-09T06:18:30.267Z,58.49
2018-06-09T06:20:58.013Z,58.59
2018-06-09T06:23:26.937Z,58.40
2018-06-09T06:25:55.245Z,59.03
2018-06-09T06:28:23.046Z,58.88
2018-06-09T06:30:51.937Z,58.96
2018-06-09T06:33:20.247Z,59.11
2018-06-09T06:35:48.801Z,59.05
2018-06-09T06:38:16.362Z,59.21
2018-06-09T06:40:44.703Z,59.06
2018-06-09T06:43:13.027Z,59.20
2018-06-09T06:45:41.994Z,59.03
2018-06-09T06:48:10.316Z,59.15
2018-06-09T06:50:38.652Z,58.72
2018-06-09T06:53:06.988Z,59.17
2018-06-09T06:55:35.306Z,58.82
2018-06-09T06:58:03.702Z,58.78
2018-06-09T07:00:32.092Z,58.58
2018-06-09T07:02:59.842Z,58.08
2018-06-09T07:05:28.758Z,58.09
2018-06-09T07:07:57.105Z,57.50
2018-06-09T07:10:25.384Z,57.20
2018-06-09T07:12:53.702Z,57.19
2018-06-09T07:15:22.030Z,56.81
2018-06-09T07:17:50.356Z,56.83
2018-06-09T07:20:18.691Z,56.61
2018-06-09T07:22:47.012Z,57.02
2018-06-09T07:25:15.342Z,57.51
2018-06-09T07:27:43.668Z,57.66
2018-06-09T07:30:12.005Z,57.79
2018-06-09T07:32:40.331Z,57.42
2018-06-09T07:35:08.131Z,57.08
2018-06-09T07:37:36.790Z,57.16
2018-06-09T07:40:05.304Z,56.49
2018-06-09T07:42:33.624Z,55.87
2018-06-09T07:45:01.953Z,55.57
2018-06-09T07:47:30.105Z,54.89
2018-06-09T07:49:58.054Z,53.64
2018-06-09T07:52:26.376Z,53.97
2018-06-09T07:54:56.877Z,54.10
2018-06-09T07:57:23.629Z,54.25
2018-06-09T07:59:51.477Z,54.18
2018-06-09T08:02:20.954Z,53.74
2018-06-09T08:04:49.272Z,54.29
2018-06-09T08:07:17.607Z,54.31
2018-06-09T08:09:46.153Z,54.51
2018-06-09T08:12:14.264Z,54.72
2018-06-09T08:14:42.595Z,53.74
2018-06-09T08:17:10.348Z,53.82
2018-06-09T08:19:39.254Z,52.74
2018-06-09T08:22:07.577Z,51.45
2018-06-09T08:24:35.904Z,49.52
2018-06-09T08:27:04.457Z,49.08
2018-06-09T08:29:32.573Z,48.98
2018-06-09T08:32:00.909Z,46.83
2018-06-09T08:34:29.461Z,46.98
2018-06-09T08:36:56.980Z,45.72
2018-06-09T08:39:25.897Z,45.56
2018-06-09T08:41:54.256Z,44.66
2018-06-09T08:44:22.005Z,43.26
2018-06-09T08:46:50.907Z,43.28
2018-06-09T08:49:20.279Z,43.67
2018-06-09T08:51:47.596Z,42.83
2018-06-09T08:54:15.928Z,42.51
2018-06-09T08:56:44.273Z,41.40
2018-06-09T08:59:12.592Z,41.33
2018-06-09T09:01:40.348Z,39.93
2018-06-09T09:04:09.286Z,39.15
2018-06-09T09:06:37.613Z,38.63
2018-06-09T09:09:05.941Z,38.44
2018-06-09T09:11:34.283Z,38.66
2018-06-09T09:14:02.612Z,40.30
2018-06-09T09:16:30.389Z,40.10
2018-06-09T09:18:59.264Z,40.77
2018-06-09T09:21:27.590Z,42.19
2018-06-09T09:23:56.863Z,42.97
2018-06-09T09:26:25.197Z,44.08
2018-06-09T09:28:53.528Z,44.72
2018-06-09T09:31:21.852Z,44.54
2018-06-09T09:33:50.181Z,44.87
2018-06-09T09:36:17.934Z,44.54
2018-06-09T09:38:47.091Z,45.18
2018-06-09T09:41:15.429Z,46.08
2018-06-09T09:43:43.176Z,46.71
2018-06-09T09:46:12.098Z,47.04
2018-06-09T09:48:39.834Z,45.92
2018-06-09T09:51:08.772Z,46.16
2018-06-09T09:53:36.612Z,44.78
2018-06-09T09:56:04.998Z,44.16
2018-06-09T09:58:33.840Z,43.82
2018-06-09T10:01:02.384Z,43.91
2018-06-09T10:03:30.932Z,42.70
2018-06-09T10:05:59.113Z,42.94
2018-06-09T10:08:27.425Z,42.69
2018-06-09T10:10:55.745Z,42.70
2018-06-09T10:13:24.063Z,43.05
2018-06-09T10:15:51.972Z,42.03
2018-06-09T10:18:22.119Z,40.82
2018-06-09T10:20:50.448Z,41.80
2018-06-09T10:23:18.774Z,41.91
2018-06-09T10:25:47.091Z,41.28
2018-06-09T10:28:15.418Z,40.69
2018-06-09T10:30:43.776Z,40.03
2018-06-09T10:33:29.092Z,38.99
2018-06-09T10:35:57.309Z,38.75
2018-06-09T10:38:25.649Z,38.67
2018-06-09T10:40:54.572Z,39.44
2018-06-09T10:43:22.292Z,39.48
2018-06-09T10:45:51.201Z,38.63
2018-06-09T10:48:19.532Z,38.32
2018-06-09T10:50:47.854Z,37.33
2018-06-09T10:53:15.608Z,37.36
2018-06-09T10:55:45.560Z,37.81
2018-06-09T10:58:13.877Z,36.71
2018-06-09T11:00:42.273Z,36.29
2018-06-09T11:03:10.048Z,34.96
2018-06-09T11:05:38.362Z,37.34
2018-06-09T11:08:06.760Z,36.36
2018-06-09T11:10:35.657Z,35.92
2018-06-09T11:13:03.976Z,35.46
2018-06-09T11:15:32.657Z,34.42
2018-06-09T11:18:01.909Z,35.47
2018-06-09T11:20:30.578Z,34.60
2018-06-09T11:22:58.899Z,35.71
2018-06-09T11:25:31.734Z,35.98
2018-06-09T11:28:00.056Z,35.70
2018-06-09T11:30:32.416Z,35.45
2018-06-09T11:32:56.392Z,35.29
2018-06-09T11:35:25.377Z,36.73
2018-06-09T11:37:53.133Z,36.49
2018-06-09T11:40:23.397Z,35.23
2018-06-09T11:42:51.818Z,35.08
2018-06-09T11:45:19.692Z,35.93
2018-06-09T11:47:50.212Z,35.89
2018-06-09T11:50:24.158Z,36.59
2018-06-09T11:52:52.671Z,37.06
2018-06-09T11:55:21.349Z,37.76
2018-06-09T11:57:49.644Z,37.33
2018-06-09T12:00:18.032Z,37.32
2018-06-09T12:02:45.730Z,37.82
2018-06-09T12:05:14.290Z,37.28
2018-06-09T12:07:44.000Z,37.58
2018-06-09T12:10:12.435Z,37.40
2018-06-09T12:12:41.502Z,36.95
2018-06-09T12:15:09.826Z,38.33
2018-06-09T12:17:38.166Z,38.82
2018-06-09T12:20:06.484Z,38.28
2018-06-09T12:22:34.806Z,36.99
2018-06-09T12:25:03.188Z,37.30
2018-06-09T12:27:31.463Z,38.04
2018-06-09T12:29:59.789Z,38.00
2018-06-09T12:32:28.240Z,37.41
2018-06-09T12:34:55.944Z,35.01
2018-06-09T12:37:24.848Z,33.71
2018-06-09T12:39:52.585Z,32.71
2018-06-09T12:42:24.865Z,32.24
2018-06-09T12:44:53.712Z,32.62
2018-06-09T12:47:22.044Z,33.58
2018-06-09T12:49:50.369Z,33.62
2018-06-09T12:52:18.686Z,34.46
2018-06-09T12:54:47.027Z,35.46
2018-06-09T12:57:14.759Z,35.81
2018-06-09T12:59:43.650Z,34.83
2018-06-09T13:02:11.974Z,34.75
2018-06-09T13:04:40.294Z,34.65
2018-06-09T13:07:08.608Z,35.10
2018-06-09T13:09:36.417Z,34.86
2018-06-09T13:12:05.328Z,33.82
2018-06-09T13:14:33.636Z,33.84
2018-06-09T13:17:01.380Z,34.34
2018-06-09T13:19:30.294Z,33.61
2018-06-09T13:21:58.615Z,33.44
2018-06-09T13:24:26.934Z,33.37
2018-06-09T13:26:55.258Z,33.49
2018-06-09T13:29:23.571Z,33.61
2018-06-09T13:31:51.893Z,33.29
2018-06-09T13:34:20.210Z,32.41
2018-06-09T13:36:47.953Z,32.34
2018-06-09T13:39:17.173Z,31.76
2018-06-09T13:41:45.490Z,31.55
2018-06-09T13:44:13.827Z,31.17
2018-06-09T13:46:42.161Z,30.99
2018-06-09T13:49:09.885Z,31.37
2018-06-09T13:51:38.781Z,31.32
2018-06-09T13:54:07.121Z,31.12
2018-06-09T13:56:35.452Z,32.22
2018-06-09T13:59:03.761Z,31.57
2018-06-09T14:01:32.121Z,31.54
2018-06-09T14:04:00.430Z,31.41
2018-06-09T14:06:28.740Z,31.18
2018-06-09T14:08:57.054Z,30.71
2018-06-09T14:11:25.376Z,31.29
2018-06-09T14:13:53.751Z,31.43
2018-06-09T14:16:21.490Z,31.28
2018-06-09T14:18:50.379Z,30.55
2018-06-09T14:21:18.300Z,30.72
2018-06-09T14:23:47.017Z,30.47
2018-06-09T14:26:16.038Z,30.82
2018-06-09T14:28:44.357Z,31.00
2018-06-09T14:31:12.691Z,31.31
2018-06-09T14:33:41.035Z,31.46
2018-06-09T14:36:08.785Z,31.43
2018-06-09T14:38:37.694Z,31.82
2018-06-09T14:41:05.438Z,31.88
2018-06-09T14:43:34.350Z,31.78
2018-06-09T14:46:02.707Z,31.46
2018-06-09T14:48:31.037Z,31.27
2018-06-09T14:50:59.370Z,31.07
2018-06-09T14:53:27.690Z,30.80
2018-06-09T14:55:56.008Z,30.78
2018-06-09T14:58:24.339Z,30.52
2018-06-09T15:00:52.667Z,30.72
2018-06-09T15:03:20.980Z,30.28
2018-06-09T15:05:49.314Z,29.99
2018-06-09T15:08:17.634Z,29.74
2018-06-09T15:10:45.965Z,29.51
2018-06-09T15:13:14.309Z,29.68
2018-06-09T15:15:42.722Z,30.03
2018-06-09T15:18:11.037Z,30.12
2018-06-09T15:20:38.777Z,30.25
2018-06-09T15:23:07.172Z,29.88
2018-06-09T15:25:36.101Z,29.45
2018-06-09T15:28:04.432Z,28.89
2018-06-09T15:30:32.762Z,28.98
2018-06-09T15:33:01.311Z,29.02
2018-06-09T15:35:29.412Z,28.71
2018-06-09T15:37:57.156Z,28.73
2018-06-09T15:40:26.057Z,28.57
2018-06-09T15:42:53.829Z,27.97
2018-06-09T15:45:22.739Z,28.74
2018-06-09T15:47:51.077Z,28.92
2018-06-09T15:50:19.388Z,28.68
2018-06-09T15:52:47.728Z,28.74
2018-06-09T15:55:16.076Z,28.75
2018-06-09T15:57:44.435Z,28.68
2018-06-09T16:00:12.191Z,28.91
2018-06-09T16:02:42.175Z,29.22
2018-06-09T16:05:10.297Z,29.41
2018-06-09T16:07:38.625Z,29.30
2018-06-09T16:10:08.114Z,29.96
2018-06-09T16:12:37.026Z,29.69
2018-06-09T16:15:05.349Z,29.51
2018-06-09T16:17:33.737Z,29.20
2018-06-09T16:20:01.477Z,29.41
2018-06-09T16:22:30.385Z,29.97
2018-06-09T16:24:58.708Z,30.51
2018-06-09T16:27:27.095Z,30.71
2018-06-09T16:29:55.447Z,30.43
2018-06-09T20:45:16.467Z,58.59
2018-06-09T20:47:45.103Z,59.57
2018-06-09T20:50:13.425Z,60.07
2018-06-09T20:52:41.759Z,60.53
2018-06-09T20:55:10.075Z,60.67
2018-06-09T20:57:39.078Z,60.84
2018-06-09T21:00:07.388Z,60.99
2018-06-09T21:02:35.712Z,60.98
2018-06-09T21:05:04.049Z,60.92
2018-06-09T21:07:32.677Z,61.02
2018-06-09T21:10:01.610Z,61.19
2018-06-09T21:12:29.399Z,61.50
2018-06-09T21:14:58.321Z,61.74
2018-06-09T21:17:26.660Z,61.48
2018-06-09T21:19:54.988Z,61.07
2018-06-09T21:22:22.739Z,60.81
2018-06-09T21:24:51.880Z,61.04
2018-06-09T21:27:20.007Z,60.79
2018-06-09T21:29:48.347Z,61.00
2018-06-09T21:32:16.128Z,60.75
2018-06-09T21:34:57.777Z,60.55
2018-06-09T21:37:25.512Z,60.73
2018-06-09T21:39:54.316Z,61.05
2018-06-09T21:42:22.665Z,60.86
2018-06-09T21:44:52.054Z,61.14
2018-06-09T21:47:20.405Z,61.21
2018-06-09T21:49:48.746Z,61.20
2018-06-09T21:52:17.067Z,61.37
2018-06-09T21:54:45.787Z,61.89
2018-06-09T21:57:15.089Z,62.51
2018-06-09T21:59:43.405Z,62.78
2018-06-09T22:02:11.735Z,62.73
2018-06-09T22:04:40.116Z,62.62
2018-06-09T22:07:08.385Z,62.64
2018-06-09T22:09:36.740Z,62.55
2018-06-09T22:12:05.057Z,62.65
2018-06-09T22:14:32.801Z,62.83
2018-06-09T22:17:01.796Z,63.01
2018-06-09T22:19:30.110Z,63.26
2018-06-09T22:21:58.453Z,63.31
2018-06-09T22:24:26.203Z,63.00
2018-06-09T22:26:54.526Z,62.79
2018-06-09T22:29:22.901Z,62.56
2018-06-09T22:31:51.793Z,62.26
2018-06-09T22:34:20.114Z,62.49
2018-06-09T22:36:48.436Z,62.58
2018-06-09T22:39:16.764Z,62.91
2018-06-09T22:41:45.096Z,63.20
2018-06-09T22:44:32.568Z,63.59
2018-06-09T22:47:00.851Z,63.54
2018-06-09T22:49:29.232Z,63.88
2018-06-09T22:51:56.961Z,63.92
2018-06-09T22:54:25.874Z,63.84
2018-06-09T22:56:55.384Z,64.17
2018-06-09T22:59:23.707Z,64.42
2018-06-09T23:01:52.036Z,64.73
2018-06-09T23:04:20.800Z,65.07
2018-06-09T23:06:50.155Z,65.39
2018-06-09T23:09:18.627Z,65.20
2018-06-09T23:11:46.914Z,64.81
2018-06-09T23:14:15.242Z,64.71
2018-06-09T23:16:43.561Z,65.09
2018-06-09T23:19:11.885Z,65.18
2018-06-09T23:21:39.613Z,65.49
2018-06-09T23:24:08.503Z,65.91
2018-06-09T23:26:36.824Z,65.99
2018-06-09T23:29:05.141Z,66.06
2018-06-09T23:31:33.462Z,66.11
2018-06-09T23:34:01.788Z,66.16
2018-06-09T23:36:30.106Z,66.24
2018-06-09T23:38:58.422Z,66.37
2018-06-09T23:41:26.738Z,66.74
2018-06-09T23:43:54.482Z,67.21
2018-06-09T23:46:23.375Z,67.64
2018-06-09T23:48:51.692Z,67.91
2018-06-09T23:51:19.484Z,67.79
2018-06-09T23:53:47.820Z,67.66
2018-06-09T23:56:16.148Z,67.57
2018-06-09T23:58:45.042Z,67.59
